sensor_id;sensor_type;location;lat;lon;timestamp;pressure;altitude;pressure_sealevel;temperature;humidity
18500;BME280;9379;52.134;11.576;2023-02-17T00:02:03;101286.56;;;10.21;97.93
18500;BME280;9379;52.134;11.576;2023-02-17T00:04:31;101282.63;;;10.27;96.90
18500;BME280;9379;52.134;11.576;2023-02-17T00:06:59;101279.00;;;10.28;97.78
18500;BME280;9379;52.134;11.576;2023-02-17T00:09:25;101265.13;;;10.00;98.66
18500;BME280;9379;52.134;11.576;2023-02-17T00:11:52;101262.09;;;10.29;98.12
18500;BME280;9379;52.134;11.576;2023-02-17T00:14:19;101259.50;;;10.16;98.84
18500;BME280;9379;52.134;11.576;2023-02-17T00:16:46;101264.22;;;10.12;98.07
18500;BME280;9379;52.134;11.576;2023-02-17T00:19:14;101254.03;;;10.06;98.68
18500;BME280;9379;52.134;11.576;2023-02-17T00:21:50;101253.09;;;10.42;96.35
18500;BME280;9379;52.134;11.576;2023-02-17T00:24:17;101246.56;;;10.46;95.18
18500;BME280;9379;52.134;11.576;2023-02-17T00:26:44;101250.63;;;10.28;97.01
18500;BME280;9379;52.134;11.576;2023-02-17T00:29:11;101227.00;;;10.47;95.89
18500;BME280;9379;52.134;11.576;2023-02-17T00:31:38;101252.25;;;10.42;95.59
18500;BME280;9379;52.134;11.576;2023-02-17T00:34:05;101252.63;;;10.13;97.46
18500;BME280;9379;52.134;11.576;2023-02-17T00:36:33;101232.41;;;10.35;96.48
18500;BME280;9379;52.134;11.576;2023-02-17T00:39:00;101245.38;;;10.84;94.65
18500;BME280;9379;52.134;11.576;2023-02-17T00:41:28;101252.59;;;10.48;96.01
18500;BME280;9379;52.134;11.576;2023-02-17T00:43:55;101246.72;;;10.21;97.70
18500;BME280;9379;52.134;11.576;2023-02-17T00:46:22;101254.66;;;10.45;97.06
18500;BME280;9379;52.134;11.576;2023-02-17T00:48:49;101231.38;;;10.13;97.65
18500;BME280;9379;52.134;11.576;2023-02-17T00:51:16;101252.84;;;10.57;95.94
18500;BME280;9379;52.134;11.576;2023-02-17T00:53:45;101244.84;;;10.23;97.71
18500;BME280;9379;52.134;11.576;2023-02-17T00:56:12;101246.41;;;10.26;98.94
18500;BME280;9379;52.134;11.576;2023-02-17T00:58:39;101234.31;;;10.21;98.50
18500;BME280;9379;52.134;11.576;2023-02-17T01:01:06;101240.75;;;10.41;97.44
18500;BME280;9379;52.134;11.576;2023-02-17T01:03:33;101246.31;;;10.49;97.64
18500;BME280;9379;52.134;11.576;2023-02-17T01:06:05;101245.59;;;10.47;98.15
18500;BME280;9379;52.134;11.576;2023-02-17T01:08:32;101249.00;;;10.14;100.00
18500;BME280;9379;52.134;11.576;2023-02-17T01:11:00;101240.31;;;10.12;100.00
18500;BME280;9379;52.134;11.576;2023-02-17T01:13:27;101241.22;;;10.24;100.00
18500;BME280;9379;52.134;11.576;2023-02-17T01:15:54;101251.72;;;10.37;100.00
18500;BME280;9379;52.134;11.576;2023-02-17T01:18:22;101244.06;;;10.21;100.00
18500;BME280;9379;52.134;11.576;2023-02-17T01:20:50;101233.25;;;10.35;100.00
18500;BME280;9379;52.134;11.576;2023-02-17T01:23:17;101221.75;;;10.23;100.00
18500;BME280;9379;52.134;11.576;2023-02-17T01:25:45;101227.19;;;9.87;100.00
18500;BME280;9379;52.134;11.576;2023-02-17T01:28:17;101187.38;;;9.87;100.00
18500;BME280;9379;52.134;11.576;2023-02-17T01:30:44;101207.66;;;10.45;100.00
18500;BME280;9379;52.134;11.576;2023-02-17T01:33:11;101209.25;;;10.02;100.00
18500;BME280;9379;52.134;11.576;2023-02-17T01:35:37;101197.03;;;10.45;100.00
18500;BME280;9379;52.134;11.576;2023-02-17T01:38:04;101194.91;;;10.15;100.00
18500;BME280;9379;52.134;11.576;2023-02-17T01:40:31;101199.72;;;10.10;100.00
18500;BME280;9379;52.134;11.576;2023-02-17T01:42:58;101187.28;;;10.00;100.00
18500;BME280;9379;52.134;11.576;2023-02-17T01:45:34;101183.66;;;10.01;100.00
18500;BME280;9379;52.134;11.576;2023-02-17T01:48:05;101174.75;;;10.13;100.00
18500;BME280;9379;52.134;11.576;2023-02-17T01:50:39;101169.19;;;10.16;100.00
18500;BME280;9379;52.134;11.576;2023-02-17T01:53:08;101171.69;;;10.06;100.00
18500;BME280;9379;52.134;11.576;2023-02-17T01:55:37;101162.97;;;9.82;100.00
18500;BME280;9379;52.134;11.576;2023-02-17T01:58:06;101145.88;;;9.97;100.00
18500;BME280;9379;52.134;11.576;2023-02-17T02:00:35;101146.75;;;10.20;100.00
18500;BME280;9379;52.134;11.576;2023-02-17T02:03:03;101123.31;;;10.03;100.00
18500;BME280;9379;52.134;11.576;2023-02-17T02:05:32;101135.59;;;9.92;100.00
18500;BME280;9379;52.134;11.576;2023-02-17T02:07:59;101125.84;;;10.15;100.00
18500;BME280;9379;52.134;11.576;2023-02-17T02:10:26;101136.72;;;10.12;100.00
18500;BME280;9379;52.134;11.576;2023-02-17T02:12:52;101125.72;;;10.06;100.00
18500;BME280;9379;52.134;11.576;2023-02-17T02:15:22;101117.84;;;9.93;100.00
18500;BME280;9379;52.134;11.576;2023-02-17T02:18:09;101112.66;;;9.91;100.00
18500;BME280;9379;52.134;11.576;2023-02-17T02:21:03;101115.06;;;9.94;100.00
18500;BME280;9379;52.134;11.576;2023-02-17T02:23:52;101109.66;;;10.18;100.00
18500;BME280;9379;52.134;11.576;2023-02-17T02:26:44;101112.91;;;10.00;100.00
18500;BME280;9379;52.134;11.576;2023-02-17T02:32:37;101110.31;;;10.33;100.00
18500;BME280;9379;52.134;11.576;2023-02-17T02:35:12;101109.06;;;10.15;100.00
18500;BME280;9379;52.134;11.576;2023-02-17T02:37:44;101106.56;;;10.25;100.00
18500;BME280;9379;52.134;11.576;2023-02-17T02:40:14;101101.72;;;10.41;100.00
18500;BME280;9379;52.134;11.576;2023-02-17T02:42:43;101102.47;;;10.43;100.00
18500;BME280;9379;52.134;11.576;2023-02-17T02:45:11;101108.97;;;10.39;100.00
18500;BME280;9379;52.134;11.576;2023-02-17T02:47:45;101102.69;;;10.40;100.00
18500;BME280;9379;52.134;11.576;2023-02-17T02:50:15;101092.19;;;10.38;100.00
18500;BME280;9379;52.134;11.576;2023-02-17T02:52:56;101064.31;;;10.21;100.00
18500;BME280;9379;52.134;11.576;2023-02-17T02:55:38;101077.91;;;10.62;98.94
18500;BME280;9379;52.134;11.576;2023-02-17T02:58:15;101086.00;;;10.60;99.81
18500;BME280;9379;52.134;11.576;2023-02-17T03:00:49;101074.38;;;10.72;98.46
18500;BME280;9379;52.134;11.576;2023-02-17T03:03:25;101078.66;;;10.30;100.00
18500;BME280;9379;52.134;11.576;2023-02-17T03:05:56;101072.75;;;10.27;100.00
18500;BME280;9379;52.134;11.576;2023-02-17T03:08:31;101076.34;;;10.59;100.00
18500;BME280;9379;52.134;11.576;2023-02-17T03:11:00;101077.81;;;10.30;100.00
18500;BME280;9379;52.134;11.576;2023-02-17T03:13:27;101068.81;;;10.64;99.83
18500;BME280;9379;52.134;11.576;2023-02-17T03:15:54;101061.84;;;10.52;100.00
18500;BME280;9379;52.134;11.576;2023-02-17T03:18:22;101057.75;;;10.59;99.19
18500;BME280;9379;52.134;11.576;2023-02-17T03:20:52;101052.56;;;10.46;100.00
18500;BME280;9379;52.134;11.576;2023-02-17T03:23:20;101046.47;;;10.78;99.32
18500;BME280;9379;52.134;11.576;2023-02-17T03:25:47;101041.69;;;10.49;100.00
18500;BME280;9379;52.134;11.576;2023-02-17T03:28:14;101041.88;;;10.69;98.94
18500;BME280;9379;52.134;11.576;2023-02-17T03:30:41;101040.13;;;10.47;99.99
18500;BME280;9379;52.134;11.576;2023-02-17T03:33:07;101031.91;;;10.50;100.00
18500;BME280;9379;52.134;11.576;2023-02-17T03:35:36;101025.41;;;11.07;97.25
18500;BME280;9379;52.134;11.576;2023-02-17T03:38:02;101028.22;;;11.05;97.20
18500;BME280;9379;52.134;11.576;2023-02-17T03:40:29;101014.72;;;10.65;98.02
18500;BME280;9379;52.134;11.576;2023-02-17T03:42:56;101033.53;;;10.73;99.81
18500;BME280;9379;52.134;11.576;2023-02-17T03:45:23;101021.13;;;10.63;99.53
18500;BME280;9379;52.134;11.576;2023-02-17T03:47:50;101011.88;;;10.35;100.00
18500;BME280;9379;52.134;11.576;2023-02-17T03:50:17;101024.06;;;10.48;100.00
18500;BME280;9379;52.134;11.576;2023-02-17T03:52:45;101028.59;;;11.01;98.39
18500;BME280;9379;52.134;11.576;2023-02-17T03:55:12;101026.91;;;10.68;99.88
18500;BME280;9379;52.134;11.576;2023-02-17T03:57:39;101027.91;;;10.88;99.34
18500;BME280;9379;52.134;11.576;2023-02-17T04:00:07;101015.41;;;10.24;100.00
18500;BME280;9379;52.134;11.576;2023-02-17T04:02:35;101029.94;;;10.63;100.00
18500;BME280;9379;52.134;11.576;2023-02-17T04:05:02;101023.59;;;10.43;100.00
18500;BME280;9379;52.134;11.576;2023-02-17T04:07:28;101029.28;;;10.82;100.00
18500;BME280;9379;52.134;11.576;2023-02-17T04:09:57;101017.19;;;10.46;100.00
18500;BME280;9379;52.134;11.576;2023-02-17T04:12:23;101009.66;;;10.51;100.00
18500;BME280;9379;52.134;11.576;2023-02-17T04:14:51;101014.44;;;10.79;100.00
18500;BME280;9379;52.134;11.576;2023-02-17T04:17:24;101012.13;;;10.75;100.00
18500;BME280;9379;52.134;11.576;2023-02-17T04:19:51;101012.09;;;10.54;100.00
18500;BME280;9379;52.134;11.576;2023-02-17T04:22:18;101003.81;;;11.00;100.00
18500;BME280;9379;52.134;11.576;2023-02-17T04:24:45;101007.56;;;10.98;100.00
18500;BME280;9379;52.134;11.576;2023-02-17T04:27:13;101011.06;;;10.98;99.62
18500;BME280;9379;52.134;11.576;2023-02-17T04:29:40;101005.94;;;10.86;99.53
18500;BME280;9379;52.134;11.576;2023-02-17T04:32:07;101008.00;;;11.14;99.46
18500;BME280;9379;52.134;11.576;2023-02-17T04:34:35;101015.59;;;10.87;100.00
18500;BME280;9379;52.134;11.576;2023-02-17T04:37:02;101004.38;;;10.83;100.00
18500;BME280;9379;52.134;11.576;2023-02-17T04:39:29;101005.50;;;11.01;100.00
18500;BME280;9379;52.134;11.576;2023-02-17T04:41:56;100999.50;;;10.88;100.00
18500;BME280;9379;52.134;11.576;2023-02-17T04:44:24;100981.22;;;10.95;100.00
18500;BME280;9379;52.134;11.576;2023-02-17T04:46:51;100984.81;;;11.26;98.34
18500;BME280;9379;52.134;11.576;2023-02-17T04:49:17;101001.75;;;11.25;98.44
18500;BME280;9379;52.134;11.576;2023-02-17T04:51:44;101000.50;;;11.08;99.23
18500;BME280;9379;52.134;11.576;2023-02-17T04:54:11;100997.59;;;10.90;100.00
18500;BME280;9379;52.134;11.576;2023-02-17T04:56:38;100995.81;;;10.79;100.00
18500;BME280;9379;52.134;11.576;2023-02-17T04:59:08;100999.09;;;11.04;100.00
18500;BME280;9379;52.134;11.576;2023-02-17T05:01:36;101000.25;;;10.90;100.00
18500;BME280;9379;52.134;11.576;2023-02-17T05:04:03;100996.91;;;10.77;100.00
18500;BME280;9379;52.134;11.576;2023-02-17T05:06:30;100992.84;;;10.94;100.00
18500;BME280;9379;52.134;11.576;2023-02-17T05:08:57;100992.84;;;10.94;100.00
18500;BME280;9379;52.134;11.576;2023-02-17T05:11:24;101005.78;;;10.87;100.00
18500;BME280;9379;52.134;11.576;2023-02-17T05:13:51;101001.03;;;11.02;100.00
18500;BME280;9379;52.134;11.576;2023-02-17T05:16:18;101004.16;;;11.07;100.00
18500;BME280;9379;52.134;11.576;2023-02-17T05:18:46;100997.38;;;10.82;100.00
18500;BME280;9379;52.134;11.576;2023-02-17T05:21:12;100997.53;;;11.01;100.00
18500;BME280;9379;52.134;11.576;2023-02-17T05:23:39;100997.41;;;10.71;100.00
18500;BME280;9379;52.134;11.576;2023-02-17T05:26:06;100991.47;;;10.99;100.00
18500;BME280;9379;52.134;11.576;2023-02-17T05:28:33;100979.03;;;11.21;100.00
18500;BME280;9379;52.134;11.576;2023-02-17T05:31:01;100998.19;;;11.15;100.00
18500;BME280;9379;52.134;11.576;2023-02-17T05:33:28;100991.22;;;10.81;100.00
18500;BME280;9379;52.134;11.576;2023-02-17T05:36:00;100990.84;;;11.07;100.00
18500;BME280;9379;52.134;11.576;2023-02-17T05:38:27;100987.91;;;11.10;100.00
18500;BME280;9379;52.134;11.576;2023-02-17T05:40:53;100988.06;;;11.08;100.00
18500;BME280;9379;52.134;11.576;2023-02-17T05:43:20;100977.69;;;11.05;100.00
18500;BME280;9379;52.134;11.576;2023-02-17T05:45:47;100967.34;;;10.91;100.00
18500;BME280;9379;52.134;11.576;2023-02-17T05:48:14;100965.34;;;10.84;100.00
18500;BME280;9379;52.134;11.576;2023-02-17T05:50:41;100955.88;;;10.91;100.00
18500;BME280;9379;52.134;11.576;2023-02-17T05:53:09;100962.28;;;11.09;100.00
18500;BME280;9379;52.134;11.576;2023-02-17T05:55:35;100959.84;;;11.17;100.00
18500;BME280;9379;52.134;11.576;2023-02-17T05:58:02;100965.63;;;11.01;100.00
18500;BME280;9379;52.134;11.576;2023-02-17T06:00:29;100951.19;;;10.83;100.00
18500;BME280;9379;52.134;11.576;2023-02-17T06:02:56;100952.84;;;11.16;100.00
18500;BME280;9379;52.134;11.576;2023-02-17T06:05:23;100945.91;;;11.04;100.00
18500;BME280;9379;52.134;11.576;2023-02-17T06:07:50;100940.56;;;11.25;100.00
18500;BME280;9379;52.134;11.576;2023-02-17T06:10:18;100903.53;;;10.91;100.00
18500;BME280;9379;52.134;11.576;2023-02-17T06:12:45;100933.06;;;11.39;100.00
18500;BME280;9379;52.134;11.576;2023-02-17T06:15:11;100930.22;;;11.31;100.00
18500;BME280;9379;52.134;11.576;2023-02-17T06:17:39;100919.78;;;11.39;100.00
18500;BME280;9379;52.134;11.576;2023-02-17T06:20:09;100921.19;;;11.13;100.00
18500;BME280;9379;52.134;11.576;2023-02-17T06:22:36;100916.53;;;11.36;100.00
18500;BME280;9379;52.134;11.576;2023-02-17T06:25:03;100924.97;;;11.20;100.00
18500;BME280;9379;52.134;11.576;2023-02-17T06:27:32;100926.13;;;11.48;100.00
18500;BME280;9379;52.134;11.576;2023-02-17T06:29:58;100929.88;;;11.46;100.00
18500;BME280;9379;52.134;11.576;2023-02-17T06:32:26;100932.19;;;11.29;100.00
18500;BME280;9379;52.134;11.576;2023-02-17T06:34:53;100933.22;;;11.38;100.00
18500;BME280;9379;52.134;11.576;2023-02-17T06:37:20;100923.84;;;11.13;100.00
18500;BME280;9379;52.134;11.576;2023-02-17T06:39:46;100921.88;;;11.36;100.00
18500;BME280;9379;52.134;11.576;2023-02-17T06:42:13;100935.31;;;11.14;100.00
18500;BME280;9379;52.134;11.576;2023-02-17T06:44:41;100939.06;;;11.62;100.00
18500;BME280;9379;52.134;11.576;2023-02-17T06:47:08;100940.00;;;11.52;100.00
18500;BME280;9379;52.134;11.576;2023-02-17T06:49:35;100929.91;;;11.55;100.00
18500;BME280;9379;52.134;11.576;2023-02-17T06:52:02;100920.66;;;11.50;100.00
18500;BME280;9379;52.134;11.576;2023-02-17T06:54:28;100920.97;;;11.26;100.00
18500;BME280;9379;52.134;11.576;2023-02-17T06:56:55;100926.72;;;11.61;100.00
18500;BME280;9379;52.134;11.576;2023-02-17T06:59:22;100920.19;;;11.45;100.00
18500;BME280;9379;52.134;11.576;2023-02-17T07:01:50;100909.97;;;11.40;100.00
18500;BME280;9379;52.134;11.576;2023-02-17T07:04:17;100903.25;;;11.46;100.00
18500;BME280;9379;52.134;11.576;2023-02-17T07:06:44;100908.91;;;11.52;100.00
18500;BME280;9379;52.134;11.576;2023-02-17T07:09:10;100908.75;;;11.54;100.00
18500;BME280;9379;52.134;11.576;2023-02-17T07:11:38;100918.44;;;11.24;100.00
18500;BME280;9379;52.134;11.576;2023-02-17T07:14:06;100920.13;;;11.25;100.00
18500;BME280;9379;52.134;11.576;2023-02-17T07:16:33;100908.00;;;11.42;100.00
18500;BME280;9379;52.134;11.576;2023-02-17T07:19:01;100908.69;;;11.75;100.00
18500;BME280;9379;52.134;11.576;2023-02-17T07:21:28;100914.97;;;11.33;100.00
18500;BME280;9379;52.134;11.576;2023-02-17T07:23:54;100910.03;;;11.50;100.00
18500;BME280;9379;52.134;11.576;2023-02-17T07:26:21;100894.69;;;11.42;100.00
18500;BME280;9379;52.134;11.576;2023-02-17T07:28:48;100902.56;;;11.44;100.00
18500;BME280;9379;52.134;11.576;2023-02-17T07:31:16;100903.66;;;11.41;100.00
18500;BME280;9379;52.134;11.576;2023-02-17T07:34:09;100897.66;;;11.79;99.36
18500;BME280;9379;52.134;11.576;2023-02-17T07:39:58;100883.44;;;11.59;99.98
18500;BME280;9379;52.134;11.576;2023-02-17T07:42:26;100885.78;;;11.53;100.00
18500;BME280;9379;52.134;11.576;2023-02-17T07:44:53;100879.09;;;11.68;100.00
18500;BME280;9379;52.134;11.576;2023-02-17T07:47:20;100882.50;;;11.70;100.00
18500;BME280;9379;52.134;11.576;2023-02-17T07:49:48;100892.50;;;11.57;100.00
18500;BME280;9379;52.134;11.576;2023-02-17T07:52:15;100881.44;;;11.82;100.00
18500;BME280;9379;52.134;11.576;2023-02-17T07:54:43;100887.75;;;11.91;98.97
18500;BME280;9379;52.134;11.576;2023-02-17T07:57:10;100887.47;;;11.84;100.00
18500;BME280;9379;52.134;11.576;2023-02-17T07:59:36;100877.41;;;12.07;98.86
18500;BME280;9379;52.134;11.576;2023-02-17T08:02:03;100874.56;;;11.89;99.17
18500;BME280;9379;52.134;11.576;2023-02-17T08:04:30;100889.19;;;11.95;99.78
18500;BME280;9379;52.134;11.576;2023-02-17T08:06:59;100872.03;;;11.88;99.85
18500;BME280;9379;52.134;11.576;2023-02-17T08:09:26;100870.97;;;11.60;100.00
18500;BME280;9379;52.134;11.576;2023-02-17T08:12:14;100860.56;;;11.97;99.08
18500;BME280;9379;52.134;11.576;2023-02-17T08:14:58;100865.47;;;12.02;99.05
18500;BME280;9379;52.134;11.576;2023-02-17T08:17:26;100871.25;;;12.45;97.04
18500;BME280;9379;52.134;11.576;2023-02-17T08:20:03;100875.25;;;11.91;98.88
18500;BME280;9379;52.134;11.576;2023-02-17T08:22:31;100861.56;;;12.06;98.84
18500;BME280;9379;52.134;11.576;2023-02-17T08:24:58;100854.19;;;11.79;99.76
18500;BME280;9379;52.134;11.576;2023-02-17T08:27:25;100852.75;;;12.05;99.31
18500;BME280;9379;52.134;11.576;2023-02-17T08:29:52;100842.09;;;12.05;98.61
18500;BME280;9379;52.134;11.576;2023-02-17T08:32:33;100828.97;;;11.73;100.00
18500;BME280;9379;52.134;11.576;2023-02-17T08:35:00;100830.97;;;11.90;99.89
18500;BME280;9379;52.134;11.576;2023-02-17T08:37:27;100823.28;;;12.07;98.71
18500;BME280;9379;52.134;11.576;2023-02-17T08:39:56;100828.63;;;12.07;97.46
18500;BME280;9379;52.134;11.576;2023-02-17T08:42:23;100825.69;;;12.39;96.97
18500;BME280;9379;52.134;11.576;2023-02-17T08:44:50;100828.63;;;12.07;97.87
18500;BME280;9379;52.134;11.576;2023-02-17T08:47:17;100822.72;;;12.42;95.75
18500;BME280;9379;52.134;11.576;2023-02-17T08:49:44;100807.03;;;12.29;96.33
18500;BME280;9379;52.134;11.576;2023-02-17T08:52:10;100810.25;;;12.42;95.65
18500;BME280;9379;52.134;11.576;2023-02-17T08:54:37;100805.50;;;12.17;96.52
18500;BME280;9379;52.134;11.576;2023-02-17T08:57:05;100804.06;;;12.22;96.43
18500;BME280;9379;52.134;11.576;2023-02-17T08:59:32;100804.91;;;12.23;96.80
18500;BME280;9379;52.134;11.576;2023-02-17T09:01:59;100795.78;;;12.35;95.47
18500;BME280;9379;52.134;11.576;2023-02-17T09:04:26;100793.69;;;12.39;96.46
18500;BME280;9379;52.134;11.576;2023-02-17T09:06:53;100788.91;;;12.33;95.97
18500;BME280;9379;52.134;11.576;2023-02-17T09:09:23;100786.94;;;12.44;96.12
18500;BME280;9379;52.134;11.576;2023-02-17T09:11:51;100788.75;;;12.53;95.59
18500;BME280;9379;52.134;11.576;2023-02-17T09:14:29;100792.81;;;12.38;95.38
18500;BME280;9379;52.134;11.576;2023-02-17T09:17:00;100792.13;;;12.55;95.22
18500;BME280;9379;52.134;11.576;2023-02-17T09:19:28;100797.75;;;12.52;94.78
18500;BME280;9379;52.134;11.576;2023-02-17T09:21:55;100781.41;;;12.75;93.57
18500;BME280;9379;52.134;11.576;2023-02-17T09:24:22;100775.44;;;12.44;95.45
18500;BME280;9379;52.134;11.576;2023-02-17T09:26:49;100778.63;;;12.67;94.52
18500;BME280;9379;52.134;11.576;2023-02-17T09:29:15;100772.75;;;12.53;94.61
18500;BME280;9379;52.134;11.576;2023-02-17T09:31:44;100769.00;;;12.83;93.55
18500;BME280;9379;52.134;11.576;2023-02-17T09:34:10;100773.59;;;13.01;93.05
18500;BME280;9379;52.134;11.576;2023-02-17T09:36:39;100760.44;;;13.27;92.60
18500;BME280;9379;52.134;11.576;2023-02-17T09:39:07;100767.72;;;12.97;93.60
18500;BME280;9379;52.134;11.576;2023-02-17T09:41:37;100754.88;;;13.10;94.21
18500;BME280;9379;52.134;11.576;2023-02-17T09:44:09;100756.72;;;13.10;94.48
18500;BME280;9379;52.134;11.576;2023-02-17T09:46:44;100748.25;;;13.14;94.05
18500;BME280;9379;52.134;11.576;2023-02-17T09:49:14;100742.91;;;12.87;95.26
18500;BME280;9379;52.134;11.576;2023-02-17T09:51:46;100735.75;;;12.88;94.74
18500;BME280;9379;52.134;11.576;2023-02-17T09:54:16;100741.94;;;12.78;95.90
18500;BME280;9379;52.134;11.576;2023-02-17T09:56:47;100733.09;;;12.78;95.69
18500;BME280;9379;52.134;11.576;2023-02-17T09:59:19;100741.97;;;13.06;94.07
18500;BME280;9379;52.134;11.576;2023-02-17T10:01:50;100730.97;;;13.19;93.46
18500;BME280;9379;52.134;11.576;2023-02-17T10:04:22;100728.13;;;13.65;92.21
18500;BME280;9379;52.134;11.576;2023-02-17T10:06:59;100710.66;;;13.53;92.43
18500;BME280;9379;52.134;11.576;2023-02-17T10:09:30;100694.88;;;13.78;90.37
18500;BME280;9379;52.134;11.576;2023-02-17T10:12:02;100713.38;;;12.98;94.45
18500;BME280;9379;52.134;11.576;2023-02-17T10:14:35;100721.19;;;13.72;91.14
18500;BME280;9379;52.134;11.576;2023-02-17T10:17:08;100719.59;;;13.97;90.16
18500;BME280;9379;52.134;11.576;2023-02-17T10:19:42;100726.78;;;13.61;92.11
18500;BME280;9379;52.134;11.576;2023-02-17T10:22:16;100730.97;;;13.82;91.50
18500;BME280;9379;52.134;11.576;2023-02-17T10:24:45;100723.56;;;13.58;92.02
18500;BME280;9379;52.134;11.576;2023-02-17T10:27:28;100713.41;;;13.97;90.76
18500;BME280;9379;52.134;11.576;2023-02-17T10:30:07;100707.13;;;13.88;91.39
18500;BME280;9379;52.134;11.576;2023-02-17T10:32:47;100711.06;;;14.20;90.86
18500;BME280;9379;52.134;11.576;2023-02-17T10:35:20;100698.88;;;14.17;91.33
18500;BME280;9379;52.134;11.576;2023-02-17T10:37:58;100689.84;;;14.18;91.45
18500;BME280;9379;52.134;11.576;2023-02-17T10:40:28;100684.38;;;14.46;90.48
18500;BME280;9379;52.134;11.576;2023-02-17T10:42:57;100682.31;;;14.40;91.37
18500;BME280;9379;52.134;11.576;2023-02-17T10:45:29;100671.03;;;14.28;92.12
18500;BME280;9379;52.134;11.576;2023-02-17T10:48:15;100664.50;;;14.48;91.50
18500;BME280;9379;52.134;11.576;2023-02-17T10:50:45;100651.16;;;14.56;91.72
18500;BME280;9379;52.134;11.576;2023-02-17T10:53:14;100643.53;;;14.36;92.86
18500;BME280;9379;52.134;11.576;2023-02-17T10:55:49;100631.03;;;14.44;92.46
18500;BME280;9379;52.134;11.576;2023-02-17T10:58:22;100614.13;;;14.78;91.01
18500;BME280;9379;52.134;11.576;2023-02-17T11:00:53;100588.97;;;14.54;92.43
18500;BME280;9379;52.134;11.576;2023-02-17T11:03:24;100598.03;;;14.62;92.38
18500;BME280;9379;52.134;11.576;2023-02-17T11:05:53;100610.19;;;14.48;93.03
18500;BME280;9379;52.134;11.576;2023-02-17T11:08:29;100608.84;;;14.94;91.66
18500;BME280;9379;52.134;11.576;2023-02-17T11:10:58;100601.97;;;14.92;91.86
18500;BME280;9379;52.134;11.576;2023-02-17T11:13:43;100592.41;;;14.73;93.08
18500;BME280;9379;52.134;11.576;2023-02-17T11:16:20;100592.06;;;14.76;93.08
18500;BME280;9379;52.134;11.576;2023-02-17T11:18:49;100588.88;;;14.80;93.15
18500;BME280;9379;52.134;11.576;2023-02-17T11:21:16;100596.97;;;15.05;92.24
18500;BME280;9379;52.134;11.576;2023-02-17T11:23:47;100592.50;;;15.22;90.89
18500;BME280;9379;52.134;11.576;2023-02-17T11:26:17;100596.31;;;14.95;92.68
18500;BME280;9379;52.134;11.576;2023-02-17T11:28:47;100588.63;;;15.16;91.95
18500;BME280;9379;52.134;11.576;2023-02-17T11:31:22;100567.22;;;15.16;91.27
18500;BME280;9379;52.134;11.576;2023-02-17T11:33:58;100574.91;;;15.03;91.85
18500;BME280;9379;52.134;11.576;2023-02-17T11:36:36;100565.03;;;15.11;91.58
18500;BME280;9379;52.134;11.576;2023-02-17T11:39:15;100563.72;;;15.07;92.05
18500;BME280;9379;52.134;11.576;2023-02-17T11:41:42;100564.56;;;15.24;91.87
18500;BME280;9379;52.134;11.576;2023-02-17T11:44:09;100555.34;;;15.18;91.72
18500;BME280;9379;52.134;11.576;2023-02-17T11:46:40;100559.03;;;15.26;92.08
18500;BME280;9379;52.134;11.576;2023-02-17T11:52:14;100560.38;;;15.30;91.52
18500;BME280;9379;52.134;11.576;2023-02-17T11:54:55;100561.00;;;14.99;91.77
18500;BME280;9379;52.134;11.576;2023-02-17T11:57:36;100557.38;;;15.16;91.08
18500;BME280;9379;52.134;11.576;2023-02-17T12:00:17;100544.13;;;15.39;89.75
18500;BME280;9379;52.134;11.576;2023-02-17T12:03:01;100550.00;;;15.18;89.81
18500;BME280;9379;52.134;11.576;2023-02-17T12:05:48;100549.50;;;15.31;89.25
18500;BME280;9379;52.134;11.576;2023-02-17T12:08:22;100542.13;;;15.50;88.48
18500;BME280;9379;52.134;11.576;2023-02-17T12:11:06;100538.28;;;15.20;88.89
18500;BME280;9379;52.134;11.576;2023-02-17T12:13:42;100536.75;;;15.50;87.69
18500;BME280;9379;52.134;11.576;2023-02-17T12:16:23;100529.72;;;15.48;88.34
18500;BME280;9379;52.134;11.576;2023-02-17T12:19:01;100516.84;;;15.44;87.53
18500;BME280;9379;52.134;11.576;2023-02-17T12:21:43;100512.47;;;15.59;88.04
18500;BME280;9379;52.134;11.576;2023-02-17T12:24:31;100491.56;;;15.46;87.46
18500;BME280;9379;52.134;11.576;2023-02-17T12:27:05;100490.06;;;15.28;87.71
18500;BME280;9379;52.134;11.576;2023-02-17T12:29:50;100499.44;;;15.48;87.70
18500;BME280;9379;52.134;11.576;2023-02-17T12:32:33;100491.56;;;15.55;87.59
18500;BME280;9379;52.134;11.576;2023-02-17T12:35:09;100477.19;;;15.64;87.64
18500;BME280;9379;52.134;11.576;2023-02-17T12:37:47;100475.13;;;15.74;86.48
18500;BME280;9379;52.134;11.576;2023-02-17T12:40:27;100477.47;;;15.77;84.95
18500;BME280;9379;52.134;11.576;2023-02-17T12:42:59;100463.53;;;15.90;84.58
18500;BME280;9379;52.134;11.576;2023-02-17T12:45:34;100467.22;;;15.89;84.87
18500;BME280;9379;52.134;11.576;2023-02-17T12:48:10;100479.47;;;15.83;84.98
18500;BME280;9379;52.134;11.576;2023-02-17T12:50:45;100481.47;;;15.89;84.92
18500;BME280;9379;52.134;11.576;2023-02-17T12:53:27;100478.50;;;15.76;85.59
18500;BME280;9379;52.134;11.576;2023-02-17T12:56:02;100473.28;;;15.83;84.90
18500;BME280;9379;52.134;11.576;2023-02-17T12:58:32;100477.59;;;15.92;84.62
18500;BME280;9379;52.134;11.576;2023-02-17T13:01:03;100489.88;;;15.78;84.69
18500;BME280;9379;52.134;11.576;2023-02-17T13:03:32;100479.53;;;16.06;84.39
18500;BME280;9379;52.134;11.576;2023-02-17T13:06:03;100481.41;;;16.05;84.45
18500;BME280;9379;52.134;11.576;2023-02-17T13:08:38;100477.69;;;16.15;84.02
18500;BME280;9379;52.134;11.576;2023-02-17T13:11:11;100484.72;;;16.16;83.14